sensor_id;sensor_type;location;lat;lon;timestamp;P1;durP1;ratioP1;P2;durP2;ratioP2
71975;SDS011;68326;52.124;5.424;2024-02-26T00:00:25;4.13;;;1.60;;
71975;SDS011;68326;52.124;5.424;2024-02-26T00:02:51;3.08;;;1.33;;
71975;SDS011;68326;52.124;5.424;2024-02-26T00:05:18;4.25;;;1.27;;
71975;SDS011;68326;52.124;5.424;2024-02-26T00:07:44;2.50;;;1.40;;
71975;SDS011;68326;52.124;5.424;2024-02-26T00:10:11;2.80;;;1.53;;
71975;SDS011;68326;52.124;5.424;2024-02-26T00:12:37;3.50;;;1.85;;
71975;SDS011;68326;52.124;5.424;2024-02-26T00:15:09;5.20;;;1.80;;
71975;SDS011;68326;52.124;5.424;2024-02-26T00:17:36;2.97;;;1.63;;
71975;SDS011;68326;52.124;5.424;2024-02-26T00:20:04;4.78;;;2.22;;
71975;SDS011;68326;52.124;5.424;2024-02-26T00:22:34;3.63;;;1.90;;
71975;SDS011;68326;52.124;5.424;2024-02-26T00:25:01;3.35;;;2.17;;
71975;SDS011;68326;52.124;5.424;2024-02-26T00:27:28;4.32;;;2.30;;
71975;SDS011;68326;52.124;5.424;2024-02-26T00:29:54;3.55;;;1.85;;
71975;SDS011;68326;52.124;5.424;2024-02-26T00:32:21;4.20;;;2.17;;
71975;SDS011;68326;52.124;5.424;2024-02-26T00:34:47;3.00;;;1.87;;
71975;SDS011;68326;52.124;5.424;2024-02-26T00:37:14;4.70;;;2.10;;
71975;SDS011;68326;52.124;5.424;2024-02-26T00:39:40;4.72;;;1.98;;
71975;SDS011;68326;52.124;5.424;2024-02-26T00:42:07;3.97;;;1.98;;
71975;SDS011;68326;52.124;5.424;2024-02-26T00:44:34;4.05;;;2.30;;
71975;SDS011;68326;52.124;5.424;2024-02-26T00:47:01;4.97;;;2.30;;
71975;SDS011;68326;52.124;5.424;2024-02-26T00:49:28;3.63;;;2.13;;
71975;SDS011;68326;52.124;5.424;2024-02-26T00:51:54;4.18;;;2.45;;
71975;SDS011;68326;52.124;5.424;2024-02-26T00:54:21;5.63;;;2.25;;
71975;SDS011;68326;52.124;5.424;2024-02-26T00:56:48;3.72;;;2.40;;
71975;SDS011;68326;52.124;5.424;2024-02-26T00:59:15;4.20;;;2.10;;
71975;SDS011;68326;52.124;5.424;2024-02-26T01:01:41;5.15;;;2.80;;
71975;SDS011;68326;52.124;5.424;2024-02-26T01:04:07;4.60;;;2.35;;
71975;SDS011;68326;52.124;5.424;2024-02-26T01:06:34;5.35;;;2.30;;
71975;SDS011;68326;52.124;5.424;2024-02-26T01:09:01;4.57;;;2.10;;
71975;SDS011;68326;52.124;5.424;2024-02-26T01:11:28;3.50;;;2.30;;
71975;SDS011;68326;52.124;5.424;2024-02-26T01:13:54;4.60;;;2.40;;
71975;SDS011;68326;52.124;5.424;2024-02-26T01:16:23;5.57;;;2.47;;
71975;SDS011;68326;52.124;5.424;2024-02-26T01:18:49;4.28;;;2.30;;
71975;SDS011;68326;52.124;5.424;2024-02-26T01:21:16;3.72;;;2.42;;
71975;SDS011;68326;52.124;5.424;2024-02-26T01:23:43;4.10;;;2.30;;
71975;SDS011;68326;52.124;5.424;2024-02-26T01:26:09;4.60;;;2.42;;
71975;SDS011;68326;52.124;5.424;2024-02-26T01:28:36;5.32;;;2.95;;
71975;SDS011;68326;52.124;5.424;2024-02-26T01:31:03;5.53;;;2.40;;
71975;SDS011;68326;52.124;5.424;2024-02-26T01:33:32;5.38;;;2.97;;
71975;SDS011;68326;52.124;5.424;2024-02-26T01:35:59;4.37;;;2.43;;
71975;SDS011;68326;52.124;5.424;2024-02-26T01:38:27;4.57;;;2.28;;
71975;SDS011;68326;52.124;5.424;2024-02-26T01:40:54;5.20;;;2.55;;
71975;SDS011;68326;52.124;5.424;2024-02-26T01:43:20;4.63;;;2.60;;
71975;SDS011;68326;52.124;5.424;2024-02-26T01:45:47;5.53;;;2.67;;
71975;SDS011;68326;52.124;5.424;2024-02-26T01:48:13;4.47;;;2.37;;
71975;SDS011;68326;52.124;5.424;2024-02-26T01:50:40;4.15;;;2.60;;
71975;SDS011;68326;52.124;5.424;2024-02-26T01:53:07;4.35;;;2.40;;
71975;SDS011;68326;52.124;5.424;2024-02-26T01:55:35;5.63;;;2.58;;
71975;SDS011;68326;52.124;5.424;2024-02-26T01:58:02;4.43;;;2.35;;
71975;SDS011;68326;52.124;5.424;2024-02-26T02:00:29;5.50;;;2.30;;
71975;SDS011;68326;52.124;5.424;2024-02-26T02:02:55;4.82;;;2.42;;
71975;SDS011;68326;52.124;5.424;2024-02-26T02:05:22;5.13;;;2.40;;
71975;SDS011;68326;52.124;5.424;2024-02-26T02:07:49;4.90;;;2.40;;
71975;SDS011;68326;52.124;5.424;2024-02-26T02:10:17;4.72;;;2.80;;
71975;SDS011;68326;52.124;5.424;2024-02-26T02:12:49;5.47;;;2.70;;
71975;SDS011;68326;52.124;5.424;2024-02-26T02:15:15;4.80;;;2.50;;
71975;SDS011;68326;52.124;5.424;2024-02-26T02:17:42;5.00;;;2.65;;
71975;SDS011;68326;52.124;5.424;2024-02-26T02:20:09;5.28;;;2.70;;
71975;SDS011;68326;52.124;5.424;2024-02-26T02:22:41;4.60;;;2.40;;
71975;SDS011;68326;52.124;5.424;2024-02-26T02:25:07;4.23;;;2.40;;
71975;SDS011;68326;52.124;5.424;2024-02-26T02:27:34;4.75;;;2.55;;
71975;SDS011;68326;52.124;5.424;2024-02-26T02:30:01;5.13;;;2.60;;
71975;SDS011;68326;52.124;5.424;2024-02-26T02:32:28;4.72;;;2.53;;
71975;SDS011;68326;52.124;5.424;2024-02-26T02:34:55;5.38;;;2.40;;
71975;SDS011;68326;52.124;5.424;2024-02-26T02:37:23;5.03;;;2.53;;
71975;SDS011;68326;52.124;5.424;2024-02-26T02:39:49;5.80;;;2.60;;
71975;SDS011;68326;52.124;5.424;2024-02-26T02:42:15;5.18;;;2.60;;
71975;SDS011;68326;52.124;5.424;2024-02-26T02:44:42;5.45;;;2.35;;
71975;SDS011;68326;52.124;5.424;2024-02-26T02:47:10;5.05;;;2.65;;
71975;SDS011;68326;52.124;5.424;2024-02-26T02:49:37;4.63;;;2.43;;
71975;SDS011;68326;52.124;5.424;2024-02-26T02:52:04;5.22;;;2.65;;
71975;SDS011;68326;52.124;5.424;2024-02-26T02:54:30;4.40;;;2.58;;
71975;SDS011;68326;52.124;5.424;2024-02-26T02:56:57;4.20;;;2.35;;
71975;SDS011;68326;52.124;5.424;2024-02-26T02:59:24;6.28;;;2.60;;
71975;SDS011;68326;52.124;5.424;2024-02-26T03:01:51;4.87;;;1.83;;
71975;SDS011;68326;52.124;5.424;2024-02-26T03:04:18;6.25;;;2.60;;
71975;SDS011;68326;52.124;5.424;2024-02-26T03:06:45;7.18;;;2.50;;
71975;SDS011;68326;52.124;5.424;2024-02-26T03:09:12;4.53;;;2.30;;
71975;SDS011;68326;52.124;5.424;2024-02-26T03:11:38;5.55;;;2.72;;
71975;SDS011;68326;52.124;5.424;2024-02-26T03:14:06;5.30;;;2.43;;
71975;SDS011;68326;52.124;5.424;2024-02-26T03:16:33;5.80;;;2.45;;
71975;SDS011;68326;52.124;5.424;2024-02-26T03:18:59;5.03;;;2.50;;
71975;SDS011;68326;52.124;5.424;2024-02-26T03:21:26;5.18;;;2.80;;
71975;SDS011;68326;52.124;5.424;2024-02-26T03:23:53;6.10;;;2.55;;
71975;SDS011;68326;52.124;5.424;2024-02-26T03:26:20;5.70;;;2.83;;
71975;SDS011;68326;52.124;5.424;2024-02-26T03:28:47;6.18;;;2.65;;
71975;SDS011;68326;52.124;5.424;2024-02-26T03:31:14;5.82;;;2.85;;
71975;SDS011;68326;52.124;5.424;2024-02-26T03:33:41;6.07;;;2.55;;
71975;SDS011;68326;52.124;5.424;2024-02-26T03:36:07;6.57;;;3.00;;
71975;SDS011;68326;52.124;5.424;2024-02-26T03:38:34;5.57;;;2.70;;
71975;SDS011;68326;52.124;5.424;2024-02-26T03:41:01;7.28;;;2.88;;
71975;SDS011;68326;52.124;5.424;2024-02-26T03:43:27;5.80;;;3.00;;
71975;SDS011;68326;52.124;5.424;2024-02-26T03:45:54;7.00;;;3.00;;
71975;SDS011;68326;52.124;5.424;2024-02-26T03:48:20;6.53;;;3.10;;
71975;SDS011;68326;52.124;5.424;2024-02-26T03:50:47;5.77;;;3.40;;
71975;SDS011;68326;52.124;5.424;2024-02-26T03:53:13;7.45;;;3.17;;
71975;SDS011;68326;52.124;5.424;2024-02-26T03:55:40;6.35;;;2.97;;
71975;SDS011;68326;52.124;5.424;2024-02-26T03:58:08;6.78;;;3.60;;
71975;SDS011;68326;52.124;5.424;2024-02-26T04:00:35;7.65;;;3.17;;
71975;SDS011;68326;52.124;5.424;2024-02-26T04:03:02;6.77;;;3.23;;
71975;SDS011;68326;52.124;5.424;2024-02-26T04:05:28;7.07;;;3.30;;
71975;SDS011;68326;52.124;5.424;2024-02-26T04:07:55;5.78;;;2.75;;
71975;SDS011;68326;52.124;5.424;2024-02-26T04:10:21;7.47;;;3.47;;
71975;SDS011;68326;52.124;5.424;2024-02-26T04:12:48;7.10;;;2.95;;
71975;SDS011;68326;52.124;5.424;2024-02-26T04:15:14;6.77;;;3.20;;
71975;SDS011;68326;52.124;5.424;2024-02-26T04:17:41;8.23;;;3.20;;
71975;SDS011;68326;52.124;5.424;2024-02-26T04:20:12;7.53;;;3.67;;
71975;SDS011;68326;52.124;5.424;2024-02-26T04:22:40;6.18;;;3.00;;
71975;SDS011;68326;52.124;5.424;2024-02-26T04:25:06;7.75;;;3.28;;
71975;SDS011;68326;52.124;5.424;2024-02-26T04:27:33;6.83;;;3.37;;
71975;SDS011;68326;52.124;5.424;2024-02-26T04:30:00;6.18;;;3.10;;
71975;SDS011;68326;52.124;5.424;2024-02-26T04:32:27;6.60;;;3.25;;
71975;SDS011;68326;52.124;5.424;2024-02-26T04:34:54;6.95;;;3.33;;
71975;SDS011;68326;52.124;5.424;2024-02-26T04:37:20;6.13;;;3.28;;
71975;SDS011;68326;52.124;5.424;2024-02-26T04:39:47;8.43;;;3.40;;
71975;SDS011;68326;52.124;5.424;2024-02-26T04:42:16;7.40;;;3.03;;
71975;SDS011;68326;52.124;5.424;2024-02-26T04:44:43;5.53;;;2.88;;
71975;SDS011;68326;52.124;5.424;2024-02-26T04:47:09;5.82;;;2.78;;
71975;SDS011;68326;52.124;5.424;2024-02-26T04:49:36;6.85;;;3.22;;
71975;SDS011;68326;52.124;5.424;2024-02-26T04:52:03;6.23;;;3.00;;
71975;SDS011;68326;52.124;5.424;2024-02-26T04:54:30;5.82;;;3.25;;
71975;SDS011;68326;52.124;5.424;2024-02-26T04:56:56;5.93;;;3.17;;
71975;SDS011;68326;52.124;5.424;2024-02-26T04:59:23;5.75;;;2.92;;
71975;SDS011;68326;52.124;5.424;2024-02-26T05:01:49;6.63;;;2.97;;
71975;SDS011;68326;52.124;5.424;2024-02-26T05:04:18;5.47;;;2.70;;
71975;SDS011;68326;52.124;5.424;2024-02-26T05:06:45;6.57;;;3.00;;
71975;SDS011;68326;52.124;5.424;2024-02-26T05:09:12;6.22;;;2.60;;
71975;SDS011;68326;52.124;5.424;2024-02-26T05:11:38;7.15;;;3.38;;
71975;SDS011;68326;52.124;5.424;2024-02-26T05:14:08;10.25;;;3.25;;
71975;SDS011;68326;52.124;5.424;2024-02-26T05:16:35;6.73;;;3.17;;
71975;SDS011;68326;52.124;5.424;2024-02-26T05:19:01;5.78;;;3.08;;
71975;SDS011;68326;52.124;5.424;2024-02-26T05:21:29;7.78;;;3.13;;
71975;SDS011;68326;52.124;5.424;2024-02-26T05:23:55;6.03;;;3.47;;
71975;SDS011;68326;52.124;5.424;2024-02-26T05:26:22;8.18;;;3.42;;
71975;SDS011;68326;52.124;5.424;2024-02-26T05:28:49;6.13;;;3.10;;
71975;SDS011;68326;52.124;5.424;2024-02-26T05:31:16;7.45;;;3.40;;
71975;SDS011;68326;52.124;5.424;2024-02-26T05:33:44;7.68;;;3.15;;
71975;SDS011;68326;52.124;5.424;2024-02-26T05:36:17;7.03;;;3.60;;
71975;SDS011;68326;52.124;5.424;2024-02-26T05:38:48;7.32;;;3.58;;
71975;SDS011;68326;52.124;5.424;2024-02-26T05:41:15;6.90;;;3.57;;
71975;SDS011;68326;52.124;5.424;2024-02-26T05:43:42;6.80;;;3.22;;
71975;SDS011;68326;52.124;5.424;2024-02-26T05:46:09;7.88;;;3.28;;
71975;SDS011;68326;52.124;5.424;2024-02-26T05:48:36;6.40;;;3.03;;
71975;SDS011;68326;52.124;5.424;2024-02-26T05:51:02;6.80;;;3.42;;
71975;SDS011;68326;52.124;5.424;2024-02-26T05:53:30;8.13;;;3.43;;
71975;SDS011;68326;52.124;5.424;2024-02-26T05:55:57;6.65;;;3.42;;
71975;SDS011;68326;52.124;5.424;2024-02-26T05:58:23;7.75;;;3.70;;
71975;SDS011;68326;52.124;5.424;2024-02-26T06:00:50;7.47;;;3.60;;
71975;SDS011;68326;52.124;5.424;2024-02-26T06:03:16;6.50;;;3.40;;
71975;SDS011;68326;52.124;5.424;2024-02-26T06:05:43;7.83;;;3.67;;
71975;SDS011;68326;52.124;5.424;2024-02-26T06:08:10;7.38;;;3.47;;
71975;SDS011;68326;52.124;5.424;2024-02-26T06:10:36;9.32;;;3.85;;
71975;SDS011;68326;52.124;5.424;2024-02-26T06:13:03;8.63;;;3.28;;
71975;SDS011;68326;52.124;5.424;2024-02-26T06:15:30;7.68;;;3.58;;
71975;SDS011;68326;52.124;5.424;2024-02-26T06:17:56;8.20;;;3.83;;
71975;SDS011;68326;52.124;5.424;2024-02-26T06:20:23;11.35;;;4.25;;
71975;SDS011;68326;52.124;5.424;2024-02-26T06:22:50;9.48;;;3.80;;
71975;SDS011;68326;52.124;5.424;2024-02-26T06:25:17;8.13;;;3.65;;
71975;SDS011;68326;52.124;5.424;2024-02-26T06:27:43;9.40;;;3.85;;
71975;SDS011;68326;52.124;5.424;2024-02-26T06:30:10;8.10;;;4.00;;
71975;SDS011;68326;52.124;5.424;2024-02-26T06:32:37;9.60;;;3.85;;
71975;SDS011;68326;52.124;5.424;2024-02-26T06:35:04;8.77;;;3.92;;
71975;SDS011;68326;52.124;5.424;2024-02-26T06:37:34;8.93;;;3.83;;
71975;SDS011;68326;52.124;5.424;2024-02-26T06:40:01;9.80;;;3.65;;
71975;SDS011;68326;52.124;5.424;2024-02-26T06:42:30;8.50;;;4.00;;
71975;SDS011;68326;52.124;5.424;2024-02-26T06:44:57;10.85;;;4.10;;
71975;SDS011;68326;52.124;5.424;2024-02-26T06:47:23;8.98;;;3.88;;
71975;SDS011;68326;52.124;5.424;2024-02-26T06:49:50;9.68;;;4.80;;
71975;SDS011;68326;52.124;5.424;2024-02-26T06:52:16;9.05;;;4.03;;
71975;SDS011;68326;52.124;5.424;2024-02-26T06:54:43;10.43;;;3.90;;
71975;SDS011;68326;52.124;5.424;2024-02-26T06:57:09;12.20;;;4.78;;
71975;SDS011;68326;52.124;5.424;2024-02-26T06:59:36;10.40;;;4.63;;
71975;SDS011;68326;52.124;5.424;2024-02-26T07:02:02;11.55;;;4.07;;
71975;SDS011;68326;52.124;5.424;2024-02-26T07:04:29;13.20;;;5.22;;
71975;SDS011;68326;52.124;5.424;2024-02-26T07:06:57;10.53;;;4.13;;
71975;SDS011;68326;52.124;5.424;2024-02-26T07:09:24;11.85;;;5.00;;
71975;SDS011;68326;52.124;5.424;2024-02-26T07:11:51;12.00;;;4.53;;
71975;SDS011;68326;52.124;5.424;2024-02-26T07:14:18;12.77;;;4.78;;
71975;SDS011;68326;52.124;5.424;2024-02-26T07:16:44;12.93;;;4.53;;
71975;SDS011;68326;52.124;5.424;2024-02-26T07:19:10;11.57;;;4.90;;
71975;SDS011;68326;52.124;5.424;2024-02-26T07:21:37;14.40;;;5.57;;
71975;SDS011;68326;52.124;5.424;2024-02-26T07:24:03;12.20;;;4.65;;
71975;SDS011;68326;52.124;5.424;2024-02-26T07:26:30;12.90;;;5.40;;
71975;SDS011;68326;52.124;5.424;2024-02-26T07:28:57;11.25;;;4.85;;
71975;SDS011;68326;52.124;5.424;2024-02-26T07:31:24;13.17;;;5.10;;
71975;SDS011;68326;52.124;5.424;2024-02-26T07:33:50;17.10;;;5.32;;
71975;SDS011;68326;52.124;5.424;2024-02-26T07:36:17;14.68;;;5.75;;
71975;SDS011;68326;52.124;5.424;2024-02-26T07:38:44;15.40;;;5.28;;
71975;SDS011;68326;52.124;5.424;2024-02-26T07:41:12;15.73;;;6.57;;
71975;SDS011;68326;52.124;5.424;2024-02-26T07:43:40;17.07;;;6.17;;
71975;SDS011;68326;52.124;5.424;2024-02-26T07:46:07;15.73;;;5.95;;
71975;SDS011;68326;52.124;5.424;2024-02-26T07:48:33;15.45;;;5.95;;
71975;SDS011;68326;52.124;5.424;2024-02-26T07:51:01;14.43;;;5.68;;
71975;SDS011;68326;52.124;5.424;2024-02-26T07:53:29;16.65;;;6.25;;
71975;SDS011;68326;52.124;5.424;2024-02-26T07:55:56;16.93;;;7.03;;
71975;SDS011;68326;52.124;5.424;2024-02-26T07:58:23;16.98;;;5.75;;
71975;SDS011;68326;52.124;5.424;2024-02-26T08:00:50;18.42;;;6.40;;
71975;SDS011;68326;52.124;5.424;2024-02-26T08:03:16;12.02;;;5.13;;
71975;SDS011;68326;52.124;5.424;2024-02-26T08:05:43;17.70;;;6.30;;
71975;SDS011;68326;52.124;5.424;2024-02-26T08:08:10;15.70;;;6.50;;
71975;SDS011;68326;52.124;5.424;2024-02-26T08:10:37;16.35;;;6.82;;
71975;SDS011;68326;52.124;5.424;2024-02-26T08:13:03;14.38;;;6.28;;
71975;SDS011;68326;52.124;5.424;2024-02-26T08:15:32;14.32;;;5.85;;
71975;SDS011;68326;52.124;5.424;2024-02-26T08:18:01;15.30;;;6.68;;
71975;SDS011;68326;52.124;5.424;2024-02-26T08:20:30;14.30;;;5.83;;
71975;SDS011;68326;52.124;5.424;2024-02-26T08:22:57;15.60;;;6.10;;
71975;SDS011;68326;52.124;5.424;2024-02-26T08:25:24;14.10;;;6.38;;
71975;SDS011;68326;52.124;5.424;2024-02-26T08:27:50;12.93;;;5.35;;
71975;SDS011;68326;52.124;5.424;2024-02-26T08:30:17;13.45;;;5.97;;
71975;SDS011;68326;52.124;5.424;2024-02-26T08:32:44;11.13;;;5.57;;
71975;SDS011;68326;52.124;5.424;2024-02-26T08:35:18;11.15;;;4.38;;
71975;SDS011;68326;52.124;5.424;2024-02-26T08:37:45;11.35;;;5.38;;
71975;SDS011;68326;52.124;5.424;2024-02-26T08:40:13;10.43;;;4.10;;
71975;SDS011;68326;52.124;5.424;2024-02-26T08:42:40;9.95;;;4.07;;
71975;SDS011;68326;52.124;5.424;2024-02-26T08:45:07;10.30;;;4.27;;
71975;SDS011;68326;52.124;5.424;2024-02-26T08:47:34;9.38;;;4.03;;
71975;SDS011;68326;52.124;5.424;2024-02-26T08:50:01;9.50;;;4.18;;
71975;SDS011;68326;52.124;5.424;2024-02-26T08:52:28;10.75;;;3.85;;
71975;SDS011;68326;52.124;5.424;2024-02-26T08:54:54;7.95;;;3.90;;
71975;SDS011;68326;52.124;5.424;2024-02-26T08:57:21;8.37;;;3.93;;
71975;SDS011;68326;52.124;5.424;2024-02-26T08:59:47;8.85;;;4.20;;
71975;SDS011;68326;52.124;5.424;2024-02-26T09:02:14;9.10;;;3.88;;
71975;SDS011;68326;52.124;5.424;2024-02-26T09:04:40;7.63;;;4.30;;
71975;SDS011;68326;52.124;5.424;2024-02-26T09:07:07;8.98;;;3.75;;
71975;SDS011;68326;52.124;5.424;2024-02-26T09:09:34;8.87;;;3.97;;
71975;SDS011;68326;52.124;5.424;2024-02-26T09:12:00;7.05;;;3.17;;
71975;SDS011;68326;52.124;5.424;2024-02-26T09:14:27;10.60;;;3.63;;
71975;SDS011;68326;52.124;5.424;2024-02-26T09:16:54;9.02;;;3.60;;
71975;SDS011;68326;52.124;5.424;2024-02-26T09:19:20;7.70;;;3.33;;
71975;SDS011;68326;52.124;5.424;2024-02-26T09:21:47;10.60;;;3.30;;
71975;SDS011;68326;52.124;5.424;2024-02-26T09:24:13;7.07;;;3.00;;
71975;SDS011;68326;52.124;5.424;2024-02-26T09:26:41;7.05;;;3.08;;
71975;SDS011;68326;52.124;5.424;2024-02-26T09:29:07;8.80;;;3.60;;
71975;SDS011;68326;52.124;5.424;2024-02-26T09:31:34;7.90;;;3.30;;
71975;SDS011;68326;52.124;5.424;2024-02-26T09:34:01;7.27;;;3.10;;
71975;SDS011;68326;52.124;5.424;2024-02-26T09:36:28;8.23;;;3.90;;
71975;SDS011;68326;52.124;5.424;2024-02-26T09:38:55;7.30;;;3.58;;
71975;SDS011;68326;52.124;5.424;2024-02-26T09:41:30;5.88;;;3.08;;
71975;SDS011;68326;52.124;5.424;2024-02-26T09:43:57;6.60;;;2.72;;
71975;SDS011;68326;52.124;5.424;2024-02-26T09:46:25;6.47;;;2.87;;
71975;SDS011;68326;52.124;5.424;2024-02-26T09:48:52;7.50;;;2.60;;
71975;SDS011;68326;52.124;5.424;2024-02-26T09:51:19;5.65;;;2.63;;
71975;SDS011;68326;52.124;5.424;2024-02-26T09:53:52;6.90;;;2.85;;
71975;SDS011;68326;52.124;5.424;2024-02-26T09:56:19;6.93;;;2.90;;
71975;SDS011;68326;52.124;5.424;2024-02-26T09:58:46;5.43;;;2.37;;
71975;SDS011;68326;52.124;5.424;2024-02-26T10:01:16;6.68;;;2.90;;
71975;SDS011;68326;52.124;5.424;2024-02-26T10:03:50;8.05;;;2.75;;
71975;SDS011;68326;52.124;5.424;2024-02-26T10:06:21;7.03;;;2.70;;
71975;SDS011;68326;52.124;5.424;2024-02-26T10:08:48;5.47;;;1.90;;
71975;SDS011;68326;52.124;5.424;2024-02-26T10:11:14;5.47;;;2.57;;
71975;SDS011;68326;52.124;5.424;2024-02-26T10:13:42;5.47;;;2.35;;
71975;SDS011;68326;52.124;5.424;2024-02-26T10:16:08;5.50;;;2.40;;
71975;SDS011;68326;52.124;5.424;2024-02-26T10:18:52;7.13;;;2.58;;
71975;SDS011;68326;52.124;5.424;2024-02-26T10:21:25;7.15;;;2.35;;
71975;SDS011;68326;52.124;5.424;2024-02-26T10:23:52;7.37;;;2.30;;
71975;SDS011;68326;52.124;5.424;2024-02-26T10:26:19;4.80;;;2.35;;
71975;SDS011;68326;52.124;5.424;2024-02-26T10:28:46;6.00;;;2.20;;
71975;SDS011;68326;52.124;5.424;2024-02-26T10:31:18;5.50;;;2.70;;
71975;SDS011;68326;52.124;5.424;2024-02-26T10:33:45;5.40;;;2.40;;
71975;SDS011;68326;52.124;5.424;2024-02-26T10:36:12;5.13;;;2.60;;
71975;SDS011;68326;52.124;5.424;2024-02-26T10:38:39;5.30;;;2.38;;
71975;SDS011;68326;52.124;5.424;2024-02-26T10:41:06;5.75;;;2.45;;
71975;SDS011;68326;52.124;5.424;2024-02-26T10:43:33;5.47;;;2.42;;
71975;SDS011;68326;52.124;5.424;2024-02-26T10:45:59;5.18;;;2.17;;
71975;SDS011;68326;52.124;5.424;2024-02-26T10:48:26;5.80;;;2.53;;
71975;SDS011;68326;52.124;5.424;2024-02-26T10:50:53;6.07;;;2.50;;
71975;SDS011;68326;52.124;5.424;2024-02-26T10:53:20;4.78;;;2.10;;
71975;SDS011;68326;52.124;5.424;2024-02-26T10:55:57;5.93;;;2.45;;
71975;SDS011;68326;52.124;5.424;2024-02-26T10:58:28;5.40;;;2.35;;
71975;SDS011;68326;52.124;5.424;2024-02-26T11:00:55;4.97;;;2.33;;
71975;SDS011;68326;52.124;5.424;2024-02-26T11:03:23;5.13;;;2.33;;
71975;SDS011;68326;52.124;5.424;2024-02-26T11:05:51;5.13;;;2.20;;
71975;SDS011;68326;52.124;5.424;2024-02-26T11:08:19;4.93;;;1.98;;
71975;SDS011;68326;52.124;5.424;2024-02-26T11:10:52;5.22;;;2.13;;
71975;SDS011;68326;52.124;5.424;2024-02-26T11:13:21;5.33;;;1.97;;
71975;SDS011;68326;52.124;5.424;2024-02-26T11:15:49;4.82;;;2.33;;
71975;SDS011;68326;52.124;5.424;2024-02-26T11:18:16;4.97;;;2.17;;
71975;SDS011;68326;52.124;5.424;2024-02-26T11:20:45;4.72;;;1.90;;
71975;SDS011;68326;52.124;5.424;2024-02-26T11:23:14;6.53;;;2.83;;
71975;SDS011;68326;52.124;5.424;2024-02-26T11:25:41;4.80;;;2.20;;
71975;SDS011;68326;52.124;5.424;2024-02-26T11:28:09;5.97;;;2.40;;
71975;SDS011;68326;52.124;5.424;2024-02-26T11:30:39;6.22;;;2.75;;
71975;SDS011;68326;52.124;5.424;2024-02-26T11:33:10;4.82;;;1.73;;
71975;SDS011;68326;52.124;5.424;2024-02-26T11:35:39;5.75;;;2.50;;
71975;SDS011;68326;52.124;5.424;2024-02-26T11:38:06;5.03;;;2.20;;
71975;SDS011;68326;52.124;5.424;2024-02-26T11:40:37;4.40;;;1.80;;
71975;SDS011;68326;52.124;5.424;2024-02-26T11:43:06;5.78;;;2.70;;
71975;SDS011;68326;52.124;5.424;2024-02-26T11:48:11;7.55;;;2.80;;
71975;SDS011;68326;52.124;5.424;2024-02-26T11:50:39;5.33;;;2.57;;
71975;SDS011;68326;52.124;5.424;2024-02-26T11:53:20;5.32;;;2.33;;
71975;SDS011;68326;52.124;5.424;2024-02-26T11:58:43;5.57;;;2.28;;
71975;SDS011;68326;52.124;5.424;2024-02-26T12:01:43;5.03;;;2.47;;
71975;SDS011;68326;52.124;5.424;2024-02-26T12:04:07;4.03;;;2.17;;
71975;SDS011;68326;52.124;5.424;2024-02-26T12:06:41;4.43;;;2.40;;
71975;SDS011;68326;52.124;5.424;2024-02-26T12:09:38;4.40;;;2.10;;
71975;SDS011;68326;52.124;5.424;2024-02-26T12:12:06;5.30;;;2.38;;
71975;SDS011;68326;52.124;5.424;2024-02-26T12:17:21;4.10;;;1.93;;
71975;SDS011;68326;52.124;5.424;2024-02-26T12:19:49;4.30;;;2.15;;
71975;SDS011;68326;52.124;5.424;2024-02-26T12:22:18;6.72;;;2.53;;
71975;SDS011;68326;52.124;5.424;2024-02-26T12:24:45;6.70;;;2.53;;
71975;SDS011;68326;52.124;5.424;2024-02-26T12:27:13;4.45;;;1.98;;
71975;SDS011;68326;52.124;5.424;2024-02-26T12:29:41;6.27;;;2.47;;
71975;SDS011;68326;52.124;5.424;2024-02-26T12:32:08;5.82;;;2.45;;
71975;SDS011;68326;52.124;5.424;2024-02-26T12:34:34;5.28;;;1.95;;
71975;SDS011;68326;52.124;5.424;2024-02-26T12:37:01;5.70;;;2.50;;
71975;SDS011;68326;52.124;5.424;2024-02-26T12:39:28;6.05;;;2.50;;
71975;SDS011;68326;52.124;5.424;2024-02-26T12:41:58;7.03;;;2.50;;
71975;SDS011;68326;52.124;5.424;2024-02-26T12:44:26;4.18;;;2.17;;
71975;SDS011;68326;52.124;5.424;2024-02-26T12:47:02;4.80;;;2.30;;
71975;SDS011;68326;52.124;5.424;2024-02-26T12:49:30;6.47;;;2.25;;
71975;SDS011;68326;52.124;5.424;2024-02-26T12:51:58;4.85;;;2.25;;
71975;SDS011;68326;52.124;5.424;2024-02-26T12:54:28;4.93;;;2.23;;
71975;SDS011;68326;52.124;5.424;2024-02-26T12:56:58;5.30;;;2.08;;
71975;SDS011;68326;52.124;5.424;2024-02-26T12:59:27;4.53;;;2.00;;
71975;SDS011;68326;52.124;5.424;2024-02-26T13:01:54;5.65;;;2.70;;
71975;SDS011;68326;52.124;5.424;2024-02-26T13:04:21;5.15;;;2.20;;
71975;SDS011;68326;52.124;5.424;2024-02-26T13:06:47;5.60;;;2.47;;
71975;SDS011;68326;52.124;5.424;2024-02-26T13:09:14;4.75;;;2.08;;
71975;SDS011;68326;52.124;5.424;2024-02-26T13:11:41;4.85;;;2.38;;
71975;SDS011;68326;52.124;5.424;2024-02-26T13:14:07;4.63;;;2.30;;
71975;SDS011;68326;52.124;5.424;2024-02-26T13:16:35;4.03;;;1.90;;
71975;SDS011;68326;52.124;5.424;2024-02-26T13:19:08;5.20;;;2.17;;
71975;SDS011;68326;52.124;5.424;2024-02-26T13:21:36;5.35;;;2.50;;
71975;SDS011;68326;52.124;5.424;2024-02-26T13:24:03;5.13;;;2.40;;
71975;SDS011;68326;52.124;5.424;2024-02-26T13:26:30;5.35;;;2.55;;
71975;SDS011;68326;52.124;5.424;2024-02-26T13:29:01;4.72;;;2.47;;
71975;SDS011;68326;52.124;5.424;2024-02-26T13:31:29;5.47;;;2.43;;
71975;SDS011;68326;52.124;5.424;2024-02-26T13:33:56;6.68;;;2.65;;
71975;SDS011;68326;52.124;5.424;2024-02-26T13:36:23;6.47;;;2.55;;
71975;SDS011;68326;52.124;5.424;2024-02-26T13:38:51;7.32;;;2.38;;
71975;SDS011;68326;52.124;5.424;2024-02-26T13:41:19;5.03;;;2.10;;
71975;SDS011;68326;52.124;5.424;2024-02-26T13:43:46;4.13;;;1.97;;
71975;SDS011;68326;52.124;5.424;2024-02-26T13:46:13;5.75;;;2.50;;
71975;SDS011;68326;52.124;5.424;2024-02-26T13:48:41;6.20;;;2.65;;
71975;SDS011;68326;52.124;5.424;2024-02-26T13:51:08;8.57;;;2.25;;
71975;SDS011;68326;52.124;5.424;2024-02-26T13:53:35;4.47;;;2.40;;
71975;SDS011;68326;52.124;5.424;2024-02-26T13:56:02;3.83;;;1.80;;
71975;SDS011;68326;52.124;5.424;2024-02-26T13:58:31;4.93;;;2.38;;
71975;SDS011;68326;52.124;5.424;2024-02-26T14:00:58;4.60;;;2.03;;
71975;SDS011;68326;52.124;5.424;2024-02-26T14:03:26;3.90;;;1.65;;
71975;SDS011;68326;52.124;5.424;2024-02-26T14:05:52;4.68;;;2.05;;
71975;SDS011;68326;52.124;5.424;2024-02-26T14:08:19;5.63;;;2.23;;
71975;SDS011;68326;52.124;5.424;2024-02-26T14:10:47;4.85;;;1.73;;
71975;SDS011;68326;52.124;5.424;2024-02-26T14:13:13;3.90;;;1.88;;
71975;SDS011;68326;52.124;5.424;2024-02-26T14:15:40;5.35;;;1.90;;
71975;SDS011;68326;52.124;5.424;2024-02-26T14:18:06;3.20;;;1.55;;
71975;SDS011;68326;52.124;5.424;2024-02-26T14:20:34;5.57;;;2.00;;
71975;SDS011;68326;52.124;5.424;2024-02-26T14:23:01;5.60;;;1.70;;
71975;SDS011;68326;52.124;5.424;2024-02-26T14:25:27;4.10;;;1.50;;
71975;SDS011;68326;52.124;5.424;2024-02-26T14:27:56;3.67;;;1.80;;
71975;SDS011;68326;52.124;5.424;2024-02-26T14:30:25;6.13;;;1.83;;
71975;SDS011;68326;52.124;5.424;2024-02-26T14:32:52;5.60;;;1.93;;
71975;SDS011;68326;52.124;5.424;2024-02-26T14:35:19;3.78;;;1.80;;
71975;SDS011;68326;52.124;5.424;2024-02-26T14:37:45;4.78;;;1.73;;
71975;SDS011;68326;52.124;5.424;2024-02-26T14:40:14;4.70;;;1.95;;
71975;SDS011;68326;52.124;5.424;2024-02-26T14:42:42;3.33;;;1.60;;
71975;SDS011;68326;52.124;5.424;2024-02-26T14:45:09;3.00;;;1.60;;
71975;SDS011;68326;52.124;5.424;2024-02-26T14:47:36;3.50;;;1.60;;
71975;SDS011;68326;52.124;5.424;2024-02-26T14:50:02;4.38;;;2.08;;
71975;SDS011;68326;52.124;5.424;2024-02-26T14:52:30;5.15;;;2.10;;
71975;SDS011;68326;52.124;5.424;2024-02-26T14:54:57;5.13;;;1.77;;